sensor_id;sensor_type;location;lat;lon;timestamp;P1;durP1;ratioP1;P2;durP2;ratioP2
57565;SDS011;63999;43.882;-0.310;2023-02-20T00:01:16;4.40;;;3.83;;
57565;SDS011;63999;43.882;-0.310;2023-02-20T00:03:42;3.78;;;3.40;;
57565;SDS011;63999;43.882;-0.310;2023-02-20T00:06:08;3.85;;;3.30;;
57565;SDS011;63999;43.882;-0.310;2023-02-20T00:08:34;3.45;;;2.75;;
57565;SDS011;63999;43.882;-0.310;2023-02-20T00:11:00;3.45;;;3.00;;
57565;SDS011;63999;43.882;-0.310;2023-02-20T00:13:26;4.00;;;3.60;;
57565;SDS011;63999;43.882;-0.310;2023-02-20T00:15:52;3.88;;;3.47;;
57565;SDS011;63999;43.882;-0.310;2023-02-20T00:18:18;3.33;;;3.03;;
57565;SDS011;63999;43.882;-0.310;2023-02-20T00:20:44;2.85;;;2.63;;
57565;SDS011;63999;43.882;-0.310;2023-02-20T00:23:10;5.95;;;4.75;;
57565;SDS011;63999;43.882;-0.310;2023-02-20T00:25:35;6.47;;;5.20;;
57565;SDS011;63999;43.882;-0.310;2023-02-20T00:28:01;12.73;;;7.93;;
57565;SDS011;63999;43.882;-0.310;2023-02-20T00:30:27;10.70;;;7.68;;
57565;SDS011;63999;43.882;-0.310;2023-02-20T00:32:53;13.05;;;8.57;;
57565;SDS011;63999;43.882;-0.310;2023-02-20T00:35:20;14.95;;;8.73;;
57565;SDS011;63999;43.882;-0.310;2023-02-20T00:37:47;22.90;;;11.20;;
57565;SDS011;63999;43.882;-0.310;2023-02-20T00:40:14;17.13;;;9.27;;
57565;SDS011;63999;43.882;-0.310;2023-02-20T00:42:41;8.57;;;5.85;;
57565;SDS011;63999;43.882;-0.310;2023-02-20T00:45:07;9.55;;;6.05;;
57565;SDS011;63999;43.882;-0.310;2023-02-20T00:47:34;5.82;;;4.45;;
57565;SDS011;63999;43.882;-0.310;2023-02-20T00:50:01;8.88;;;5.38;;
57565;SDS011;63999;43.882;-0.310;2023-02-20T00:52:28;7.95;;;5.53;;
57565;SDS011;63999;43.882;-0.310;2023-02-20T00:54:54;15.27;;;6.95;;
57565;SDS011;63999;43.882;-0.310;2023-02-20T00:57:20;15.20;;;8.98;;
57565;SDS011;63999;43.882;-0.310;2023-02-20T00:59:47;14.95;;;8.50;;
57565;SDS011;63999;43.882;-0.310;2023-02-20T01:02:13;12.93;;;7.53;;
57565;SDS011;63999;43.882;-0.310;2023-02-20T01:04:40;10.52;;;6.38;;
57565;SDS011;63999;43.882;-0.310;2023-02-20T01:07:06;7.80;;;5.43;;
57565;SDS011;63999;43.882;-0.310;2023-02-20T01:09:33;7.55;;;4.75;;
57565;SDS011;63999;43.882;-0.310;2023-02-20T01:11:59;5.68;;;4.72;;
57565;SDS011;63999;43.882;-0.310;2023-02-20T01:14:25;6.47;;;5.13;;
57565;SDS011;63999;43.882;-0.310;2023-02-20T01:16:51;9.00;;;5.57;;
57565;SDS011;63999;43.882;-0.310;2023-02-20T01:19:18;12.85;;;7.45;;
57565;SDS011;63999;43.882;-0.310;2023-02-20T01:21:45;11.63;;;7.32;;
57565;SDS011;63999;43.882;-0.310;2023-02-20T01:24:12;18.95;;;10.95;;
57565;SDS011;63999;43.882;-0.310;2023-02-20T01:26:40;17.40;;;10.95;;
57565;SDS011;63999;43.882;-0.310;2023-02-20T01:29:06;13.65;;;9.18;;
57565;SDS011;63999;43.882;-0.310;2023-02-20T01:31:32;13.25;;;9.77;;
57565;SDS011;63999;43.882;-0.310;2023-02-20T01:33:58;10.93;;;8.55;;
57565;SDS011;63999;43.882;-0.310;2023-02-20T01:36:24;11.65;;;8.82;;
57565;SDS011;63999;43.882;-0.310;2023-02-20T01:38:51;14.63;;;9.20;;
57565;SDS011;63999;43.882;-0.310;2023-02-20T01:41:18;14.85;;;9.32;;
57565;SDS011;63999;43.882;-0.310;2023-02-20T01:43:44;15.93;;;10.10;;
57565;SDS011;63999;43.882;-0.310;2023-02-20T01:48:58;13.75;;;10.63;;
57565;SDS011;63999;43.882;-0.310;2023-02-20T01:51:25;15.95;;;11.35;;
57565;SDS011;63999;43.882;-0.310;2023-02-20T01:53:54;17.77;;;11.90;;
57565;SDS011;63999;43.882;-0.310;2023-02-20T01:56:19;14.55;;;10.35;;
57565;SDS011;63999;43.882;-0.310;2023-02-20T01:58:46;14.00;;;9.70;;
57565;SDS011;63999;43.882;-0.310;2023-02-20T02:01:14;15.50;;;10.63;;
57565;SDS011;63999;43.882;-0.310;2023-02-20T02:03:40;19.20;;;12.20;;
57565;SDS011;63999;43.882;-0.310;2023-02-20T02:06:09;14.43;;;10.07;;
57565;SDS011;63999;43.882;-0.310;2023-02-20T02:08:37;11.40;;;8.13;;
57565;SDS011;63999;43.882;-0.310;2023-02-20T02:11:10;11.77;;;8.25;;
57565;SDS011;63999;43.882;-0.310;2023-02-20T02:13:39;10.10;;;8.32;;
57565;SDS011;63999;43.882;-0.310;2023-02-20T02:18:59;9.77;;;7.82;;
57565;SDS011;63999;43.882;-0.310;2023-02-20T02:27:53;10.98;;;8.60;;
57565;SDS011;63999;43.882;-0.310;2023-02-20T02:39:13;11.45;;;8.43;;
57565;SDS011;63999;43.882;-0.310;2023-02-20T02:44:22;11.23;;;8.17;;
57565;SDS011;63999;43.882;-0.310;2023-02-20T02:47:01;10.07;;;8.45;;
57565;SDS011;63999;43.882;-0.310;2023-02-20T02:52:18;9.68;;;6.43;;
57565;SDS011;63999;43.882;-0.310;2023-02-20T02:55:14;10.05;;;7.38;;
57565;SDS011;63999;43.882;-0.310;2023-02-20T02:57:42;8.68;;;7.40;;
57565;SDS011;63999;43.882;-0.310;2023-02-20T03:05:32;10.85;;;8.35;;
57565;SDS011;63999;43.882;-0.310;2023-02-20T03:08:32;10.25;;;7.72;;
57565;SDS011;63999;43.882;-0.310;2023-02-20T03:11:12;9.10;;;7.18;;
57565;SDS011;63999;43.882;-0.310;2023-02-20T03:13:44;7.72;;;6.43;;
57565;SDS011;63999;43.882;-0.310;2023-02-20T03:19:44;6.82;;;5.72;;
57565;SDS011;63999;43.882;-0.310;2023-02-20T03:22:22;7.72;;;6.10;;
57565;SDS011;63999;43.882;-0.310;2023-02-20T03:24:58;8.40;;;6.93;;
57565;SDS011;63999;43.882;-0.310;2023-02-20T03:27:32;8.05;;;6.10;;
57565;SDS011;63999;43.882;-0.310;2023-02-20T03:30:48;7.05;;;5.68;;
57565;SDS011;63999;43.882;-0.310;2023-02-20T03:32:55;7.30;;;5.93;;
57565;SDS011;63999;43.882;-0.310;2023-02-20T03:35:46;7.63;;;5.68;;
57565;SDS011;63999;43.882;-0.310;2023-02-20T03:38:35;6.15;;;5.50;;
57565;SDS011;63999;43.882;-0.310;2023-02-20T03:41:21;8.07;;;6.40;;
57565;SDS011;63999;43.882;-0.310;2023-02-20T03:44:08;6.53;;;5.78;;
57565;SDS011;63999;43.882;-0.310;2023-02-20T03:46:36;7.70;;;5.70;;
57565;SDS011;63999;43.882;-0.310;2023-02-20T03:49:08;7.07;;;5.70;;
57565;SDS011;63999;43.882;-0.310;2023-02-20T03:54:03;7.20;;;5.40;;
57565;SDS011;63999;43.882;-0.310;2023-02-20T03:56:31;6.75;;;5.80;;
57565;SDS011;63999;43.882;-0.310;2023-02-20T03:59:07;8.70;;;6.90;;
57565;SDS011;63999;43.882;-0.310;2023-02-20T04:02:03;9.30;;;7.90;;
57565;SDS011;63999;43.882;-0.310;2023-02-20T04:04:37;10.18;;;6.88;;
57565;SDS011;63999;43.882;-0.310;2023-02-20T04:07:11;8.25;;;6.32;;
57565;SDS011;63999;43.882;-0.310;2023-02-20T04:09:44;9.18;;;6.10;;
57565;SDS011;63999;43.882;-0.310;2023-02-20T04:12:16;7.32;;;6.03;;
57565;SDS011;63999;43.882;-0.310;2023-02-20T04:14:51;7.65;;;6.53;;
57565;SDS011;63999;43.882;-0.310;2023-02-20T04:17:21;6.22;;;5.43;;
57565;SDS011;63999;43.882;-0.310;2023-02-20T04:19:51;6.35;;;5.57;;
57565;SDS011;63999;43.882;-0.310;2023-02-20T04:22:19;5.40;;;4.70;;
57565;SDS011;63999;43.882;-0.310;2023-02-20T04:24:57;5.28;;;4.60;;
57565;SDS011;63999;43.882;-0.310;2023-02-20T04:27:31;5.28;;;4.40;;
57565;SDS011;63999;43.882;-0.310;2023-02-20T04:29:57;5.40;;;4.43;;
57565;SDS011;63999;43.882;-0.310;2023-02-20T04:32:23;5.25;;;4.63;;
57565;SDS011;63999;43.882;-0.310;2023-02-20T04:34:49;3.97;;;3.50;;
57565;SDS011;63999;43.882;-0.310;2023-02-20T04:37:16;5.70;;;4.47;;
57565;SDS011;63999;43.882;-0.310;2023-02-20T04:39:43;6.13;;;4.68;;
57565;SDS011;63999;43.882;-0.310;2023-02-20T04:42:10;8.27;;;5.20;;
57565;SDS011;63999;43.882;-0.310;2023-02-20T04:44:36;5.38;;;4.88;;
57565;SDS011;63999;43.882;-0.310;2023-02-20T04:47:05;5.22;;;4.72;;
57565;SDS011;63999;43.882;-0.310;2023-02-20T04:49:32;6.47;;;4.50;;
57565;SDS011;63999;43.882;-0.310;2023-02-20T04:51:58;5.03;;;4.13;;
57565;SDS011;63999;43.882;-0.310;2023-02-20T04:54:25;4.53;;;3.88;;
57565;SDS011;63999;43.882;-0.310;2023-02-20T04:56:51;4.63;;;3.92;;
57565;SDS011;63999;43.882;-0.310;2023-02-20T04:59:17;3.85;;;3.45;;
57565;SDS011;63999;43.882;-0.310;2023-02-20T05:01:43;3.80;;;3.42;;
57565;SDS011;63999;43.882;-0.310;2023-02-20T05:04:15;4.13;;;3.70;;
57565;SDS011;63999;43.882;-0.310;2023-02-20T05:06:42;4.82;;;3.95;;
57565;SDS011;63999;43.882;-0.310;2023-02-20T05:09:09;4.57;;;4.18;;
57565;SDS011;63999;43.882;-0.310;2023-02-20T05:11:35;5.25;;;4.68;;
57565;SDS011;63999;43.882;-0.310;2023-02-20T05:14:02;6.55;;;4.38;;
57565;SDS011;63999;43.882;-0.310;2023-02-20T05:16:29;4.97;;;4.25;;
57565;SDS011;63999;43.882;-0.310;2023-02-20T05:18:54;4.95;;;3.95;;
57565;SDS011;63999;43.882;-0.310;2023-02-20T05:21:20;4.78;;;4.28;;
57565;SDS011;63999;43.882;-0.310;2023-02-20T05:24:05;5.35;;;4.43;;
57565;SDS011;63999;43.882;-0.310;2023-02-20T05:26:32;5.88;;;4.40;;
57565;SDS011;63999;43.882;-0.310;2023-02-20T05:28:57;5.63;;;5.10;;
57565;SDS011;63999;43.882;-0.310;2023-02-20T05:31:23;4.97;;;3.83;;
57565;SDS011;63999;43.882;-0.310;2023-02-20T05:33:49;7.10;;;3.25;;
57565;SDS011;63999;43.882;-0.310;2023-02-20T05:36:15;3.67;;;3.35;;
57565;SDS011;63999;43.882;-0.310;2023-02-20T05:38:41;4.45;;;3.72;;
57565;SDS011;63999;43.882;-0.310;2023-02-20T05:41:12;4.88;;;4.10;;
57565;SDS011;63999;43.882;-0.310;2023-02-20T05:43:39;4.10;;;3.70;;
57565;SDS011;63999;43.882;-0.310;2023-02-20T05:46:05;4.60;;;4.10;;
57565;SDS011;63999;43.882;-0.310;2023-02-20T05:48:31;4.85;;;4.18;;
57565;SDS011;63999;43.882;-0.310;2023-02-20T05:50:56;5.63;;;4.22;;
57565;SDS011;63999;43.882;-0.310;2023-02-20T05:53:22;9.90;;;6.30;;
57565;SDS011;63999;43.882;-0.310;2023-02-20T05:55:51;6.57;;;4.43;;
57565;SDS011;63999;43.882;-0.310;2023-02-20T05:58:16;6.68;;;4.22;;
57565;SDS011;63999;43.882;-0.310;2023-02-20T06:00:42;6.65;;;5.78;;
57565;SDS011;63999;43.882;-0.310;2023-02-20T06:03:08;9.13;;;4.22;;
57565;SDS011;63999;43.882;-0.310;2023-02-20T06:05:36;3.90;;;3.47;;
57565;SDS011;63999;43.882;-0.310;2023-02-20T06:08:02;4.07;;;3.00;;
57565;SDS011;63999;43.882;-0.310;2023-02-20T06:10:29;4.15;;;3.75;;
57565;SDS011;63999;43.882;-0.310;2023-02-20T06:12:54;9.73;;;3.35;;
57565;SDS011;63999;43.882;-0.310;2023-02-20T06:15:20;9.02;;;3.28;;
57565;SDS011;63999;43.882;-0.310;2023-02-20T06:17:46;20.90;;;3.30;;
57565;SDS011;63999;43.882;-0.310;2023-02-20T06:20:12;13.30;;;2.85;;
57565;SDS011;63999;43.882;-0.310;2023-02-20T06:22:39;8.95;;;3.03;;
57565;SDS011;63999;43.882;-0.310;2023-02-20T06:25:05;3.25;;;2.95;;
57565;SDS011;63999;43.882;-0.310;2023-02-20T06:27:31;3.47;;;3.00;;
57565;SDS011;63999;43.882;-0.310;2023-02-20T06:29:57;3.63;;;3.33;;
57565;SDS011;63999;43.882;-0.310;2023-02-20T06:32:22;7.32;;;3.70;;
57565;SDS011;63999;43.882;-0.310;2023-02-20T06:34:48;4.75;;;3.78;;
57565;SDS011;63999;43.882;-0.310;2023-02-20T06:37:14;4.35;;;3.70;;
57565;SDS011;63999;43.882;-0.310;2023-02-20T06:39:41;4.00;;;3.40;;
57565;SDS011;63999;43.882;-0.310;2023-02-20T06:42:10;4.68;;;3.17;;
57565;SDS011;63999;43.882;-0.310;2023-02-20T06:44:36;4.95;;;3.15;;
57565;SDS011;63999;43.882;-0.310;2023-02-20T06:47:02;3.80;;;3.10;;
57565;SDS011;63999;43.882;-0.310;2023-02-20T06:49:33;3.95;;;3.55;;
57565;SDS011;63999;43.882;-0.310;2023-02-20T06:51:59;6.40;;;3.08;;
57565;SDS011;63999;43.882;-0.310;2023-02-20T06:54:25;3.47;;;2.85;;
57565;SDS011;63999;43.882;-0.310;2023-02-20T06:56:51;4.75;;;3.00;;
57565;SDS011;63999;43.882;-0.310;2023-02-20T06:59:17;6.40;;;2.95;;
57565;SDS011;63999;43.882;-0.310;2023-02-20T07:01:43;3.40;;;3.08;;
57565;SDS011;63999;43.882;-0.310;2023-02-20T07:04:30;3.20;;;2.90;;
57565;SDS011;63999;43.882;-0.310;2023-02-20T07:06:55;3.05;;;2.75;;
57565;SDS011;63999;43.882;-0.310;2023-02-20T07:09:21;3.28;;;2.90;;
57565;SDS011;63999;43.882;-0.310;2023-02-20T07:11:47;3.35;;;2.90;;
57565;SDS011;63999;43.882;-0.310;2023-02-20T07:14:14;3.33;;;3.03;;
57565;SDS011;63999;43.882;-0.310;2023-02-20T07:16:40;4.10;;;3.05;;
57565;SDS011;63999;43.882;-0.310;2023-02-20T07:19:06;4.20;;;3.30;;
57565;SDS011;63999;43.882;-0.310;2023-02-20T07:21:31;3.78;;;3.13;;
57565;SDS011;63999;43.882;-0.310;2023-02-20T07:23:57;3.72;;;3.40;;
57565;SDS011;63999;43.882;-0.310;2023-02-20T07:26:24;4.07;;;3.67;;
57565;SDS011;63999;43.882;-0.310;2023-02-20T07:28:52;3.67;;;3.38;;
57565;SDS011;63999;43.882;-0.310;2023-02-20T07:31:19;3.88;;;3.40;;
57565;SDS011;63999;43.882;-0.310;2023-02-20T07:33:45;3.60;;;3.25;;
57565;SDS011;63999;43.882;-0.310;2023-02-20T07:36:11;3.60;;;3.25;;
57565;SDS011;63999;43.882;-0.310;2023-02-20T07:38:39;3.42;;;3.10;;
57565;SDS011;63999;43.882;-0.310;2023-02-20T07:41:05;3.85;;;3.28;;
57565;SDS011;63999;43.882;-0.310;2023-02-20T07:43:32;4.72;;;3.35;;
57565;SDS011;63999;43.882;-0.310;2023-02-20T07:45:57;5.18;;;3.33;;
57565;SDS011;63999;43.882;-0.310;2023-02-20T07:48:23;5.03;;;3.85;;
57565;SDS011;63999;43.882;-0.310;2023-02-20T07:50:49;4.55;;;3.63;;
57565;SDS011;63999;43.882;-0.310;2023-02-20T07:53:17;6.15;;;4.20;;
57565;SDS011;63999;43.882;-0.310;2023-02-20T07:55:43;7.53;;;4.53;;
57565;SDS011;63999;43.882;-0.310;2023-02-20T07:58:09;5.32;;;4.28;;
57565;SDS011;63999;43.882;-0.310;2023-02-20T08:00:36;15.57;;;9.85;;
57565;SDS011;63999;43.882;-0.310;2023-02-20T08:03:02;5.82;;;4.50;;
57565;SDS011;63999;43.882;-0.310;2023-02-20T08:05:27;4.47;;;4.07;;
57565;SDS011;63999;43.882;-0.310;2023-02-20T08:07:54;6.28;;;4.32;;
57565;SDS011;63999;43.882;-0.310;2023-02-20T08:10:21;5.32;;;3.70;;
57565;SDS011;63999;43.882;-0.310;2023-02-20T08:12:50;3.85;;;3.45;;
57565;SDS011;63999;43.882;-0.310;2023-02-20T08:15:17;4.10;;;3.70;;
57565;SDS011;63999;43.882;-0.310;2023-02-20T08:17:43;5.80;;;4.15;;
57565;SDS011;63999;43.882;-0.310;2023-02-20T08:20:09;4.32;;;3.63;;
57565;SDS011;63999;43.882;-0.310;2023-02-20T08:22:36;6.50;;;4.18;;
57565;SDS011;63999;43.882;-0.310;2023-02-20T08:25:02;4.85;;;4.35;;
57565;SDS011;63999;43.882;-0.310;2023-02-20T08:27:30;6.75;;;4.18;;
57565;SDS011;63999;43.882;-0.310;2023-02-20T08:29:56;4.50;;;3.90;;
57565;SDS011;63999;43.882;-0.310;2023-02-20T08:32:23;6.65;;;3.97;;
57565;SDS011;63999;43.882;-0.310;2023-02-20T08:34:49;3.72;;;3.42;;
57565;SDS011;63999;43.882;-0.310;2023-02-20T08:37:15;7.70;;;4.50;;
57565;SDS011;63999;43.882;-0.310;2023-02-20T08:39:41;7.35;;;3.97;;
57565;SDS011;63999;43.882;-0.310;2023-02-20T08:42:07;4.18;;;3.78;;
57565;SDS011;63999;43.882;-0.310;2023-02-20T08:44:32;8.45;;;3.85;;
57565;SDS011;63999;43.882;-0.310;2023-02-20T08:46:58;6.90;;;3.60;;
57565;SDS011;63999;43.882;-0.310;2023-02-20T08:49:24;5.63;;;4.25;;
57565;SDS011;63999;43.882;-0.310;2023-02-20T08:51:52;4.18;;;3.78;;
57565;SDS011;63999;43.882;-0.310;2023-02-20T08:54:19;4.20;;;3.53;;
57565;SDS011;63999;43.882;-0.310;2023-02-20T08:56:45;5.18;;;4.00;;
57565;SDS011;63999;43.882;-0.310;2023-02-20T08:59:11;10.50;;;3.95;;
57565;SDS011;63999;43.882;-0.310;2023-02-20T09:01:39;4.18;;;3.78;;
57565;SDS011;63999;43.882;-0.310;2023-02-20T09:04:06;4.70;;;4.13;;
57565;SDS011;63999;43.882;-0.310;2023-02-20T09:06:34;5.30;;;4.07;;
57565;SDS011;63999;43.882;-0.310;2023-02-20T09:09:01;6.13;;;4.05;;
57565;SDS011;63999;43.882;-0.310;2023-02-20T09:11:27;4.32;;;3.90;;
57565;SDS011;63999;43.882;-0.310;2023-02-20T09:13:53;7.22;;;4.72;;
57565;SDS011;63999;43.882;-0.310;2023-02-20T09:16:20;5.80;;;3.97;;
57565;SDS011;63999;43.882;-0.310;2023-02-20T09:18:47;4.88;;;4.38;;
57565;SDS011;63999;43.882;-0.310;2023-02-20T09:21:15;4.60;;;3.95;;
57565;SDS011;63999;43.882;-0.310;2023-02-20T09:23:42;5.03;;;3.90;;
57565;SDS011;63999;43.882;-0.310;2023-02-20T09:26:08;4.82;;;4.32;;
57565;SDS011;63999;43.882;-0.310;2023-02-20T09:28:34;5.32;;;4.40;;
57565;SDS011;63999;43.882;-0.310;2023-02-20T09:31:00;5.28;;;4.78;;
57565;SDS011;63999;43.882;-0.310;2023-02-20T09:33:26;5.57;;;4.65;;
57565;SDS011;63999;43.882;-0.310;2023-02-20T09:35:53;7.55;;;5.18;;
57565;SDS011;63999;43.882;-0.310;2023-02-20T09:38:19;5.80;;;5.20;;
57565;SDS011;63999;43.882;-0.310;2023-02-20T09:40:48;5.88;;;5.30;;
57565;SDS011;63999;43.882;-0.310;2023-02-20T09:43:21;6.43;;;5.35;;
57565;SDS011;63999;43.882;-0.310;2023-02-20T09:46:15;6.30;;;5.28;;
57565;SDS011;63999;43.882;-0.310;2023-02-20T09:51:34;6.82;;;5.05;;
57565;SDS011;63999;43.882;-0.310;2023-02-20T09:54:17;6.18;;;5.45;;
57565;SDS011;63999;43.882;-0.310;2023-02-20T09:56:55;6.03;;;5.43;;
57565;SDS011;63999;43.882;-0.310;2023-02-20T10:04:48;6.63;;;5.20;;
57565;SDS011;63999;43.882;-0.310;2023-02-20T10:09:52;6.63;;;5.18;;
57565;SDS011;63999;43.882;-0.310;2023-02-20T10:15:19;6.07;;;5.47;;
57565;SDS011;63999;43.882;-0.310;2023-02-20T10:26:12;8.18;;;7.32;;
57565;SDS011;63999;43.882;-0.310;2023-02-20T10:29:14;9.93;;;8.73;;
57565;SDS011;63999;43.882;-0.310;2023-02-20T10:37:35;9.48;;;8.48;;
57565;SDS011;63999;43.882;-0.310;2023-02-20T10:40:11;10.95;;;8.88;;
57565;SDS011;63999;43.882;-0.310;2023-02-20T10:43:27;9.57;;;8.57;;
57565;SDS011;63999;43.882;-0.310;2023-02-20T10:45:36;11.43;;;8.52;;
57565;SDS011;63999;43.882;-0.310;2023-02-20T10:48:10;9.18;;;7.72;;
57565;SDS011;63999;43.882;-0.310;2023-02-20T11:01:10;9.93;;;7.95;;
57565;SDS011;63999;43.882;-0.310;2023-02-20T11:03:47;6.93;;;5.75;;
57565;SDS011;63999;43.882;-0.310;2023-02-20T11:06:20;7.90;;;6.68;;
57565;SDS011;63999;43.882;-0.310;2023-02-20T11:08:47;7.07;;;6.38;;
57565;SDS011;63999;43.882;-0.310;2023-02-20T11:11:20;10.70;;;8.30;;
57565;SDS011;63999;43.882;-0.310;2023-02-20T11:13:59;10.25;;;7.47;;
57565;SDS011;63999;43.882;-0.310;2023-02-20T11:16:38;7.43;;;5.78;;
57565;SDS011;63999;43.882;-0.310;2023-02-20T11:19:11;7.88;;;6.60;;
57565;SDS011;63999;43.882;-0.310;2023-02-20T11:21:47;9.63;;;8.27;;
57565;SDS011;63999;43.882;-0.310;2023-02-20T11:24:18;10.27;;;8.55;;
57565;SDS011;63999;43.882;-0.310;2023-02-20T11:26:47;10.53;;;8.40;;
57565;SDS011;63999;43.882;-0.310;2023-02-20T11:29:18;9.38;;;7.82;;
57565;SDS011;63999;43.882;-0.310;2023-02-20T11:31:47;9.40;;;8.05;;
57565;SDS011;63999;43.882;-0.310;2023-02-20T11:34:20;8.88;;;7.22;;
57565;SDS011;63999;43.882;-0.310;2023-02-20T11:36:50;7.00;;;6.05;;
57565;SDS011;63999;43.882;-0.310;2023-02-20T11:39:18;8.43;;;6.50;;
57565;SDS011;63999;43.882;-0.310;2023-02-20T11:41:45;10.98;;;7.35;;
57565;SDS011;63999;43.882;-0.310;2023-02-20T11:44:19;10.95;;;7.18;;
57565;SDS011;63999;43.882;-0.310;2023-02-20T11:46:47;9.85;;;6.63;;
57565;SDS011;63999;43.882;-0.310;2023-02-20T11:49:32;9.32;;;7.25;;
57565;SDS011;63999;43.882;-0.310;2023-02-20T11:54:44;11.73;;;7.70;;
57565;SDS011;63999;43.882;-0.310;2023-02-20T11:59:43;11.43;;;8.15;;
57565;SDS011;63999;43.882;-0.310;2023-02-20T12:02:12;11.50;;;8.40;;
57565;SDS011;63999;43.882;-0.310;2023-02-20T12:05:05;8.90;;;7.25;;
57565;SDS011;63999;43.882;-0.310;2023-02-20T12:07:40;12.13;;;8.57;;
57565;SDS011;63999;43.882;-0.310;2023-02-20T12:10:35;13.70;;;9.35;;
57565;SDS011;63999;43.882;-0.310;2023-02-20T12:13:07;10.98;;;8.15;;
57565;SDS011;63999;43.882;-0.310;2023-02-20T12:15:39;13.25;;;9.98;;
57565;SDS011;63999;43.882;-0.310;2023-02-20T12:21:08;11.75;;;8.48;;
57565;SDS011;63999;43.882;-0.310;2023-02-20T12:29:57;9.18;;;7.30;;
57565;SDS011;63999;43.882;-0.310;2023-02-20T12:32:04;8.38;;;5.60;;
57565;SDS011;63999;43.882;-0.310;2023-02-20T12:37:30;10.23;;;6.30;;
57565;SDS011;63999;43.882;-0.310;2023-02-20T12:40:40;11.23;;;6.40;;
57565;SDS011;63999;43.882;-0.310;2023-02-20T12:46:20;4.70;;;3.25;;
57565;SDS011;63999;43.882;-0.310;2023-02-20T13:03:32;4.18;;;2.80;;
57565;SDS011;63999;43.882;-0.310;2023-02-20T13:06:09;3.83;;;2.17;;
57565;SDS011;63999;43.882;-0.310;2023-02-20T13:08:51;4.50;;;2.45;;
57565;SDS011;63999;43.882;-0.310;2023-02-20T13:11:24;2.50;;;1.90;;
57565;SDS011;63999;43.882;-0.310;2023-02-20T13:19:46;2.67;;;2.15;;
57565;SDS011;63999;43.882;-0.310;2023-02-20T13:22:13;2.45;;;1.70;;
57565;SDS011;63999;43.882;-0.310;2023-02-20T13:24:40;4.10;;;2.08;;
57565;SDS011;63999;43.882;-0.310;2023-02-20T13:27:07;2.92;;;1.67;;
57565;SDS011;63999;43.882;-0.310;2023-02-20T13:30:17;2.45;;;1.63;;
57565;SDS011;63999;43.882;-0.310;2023-02-20T13:32:28;3.80;;;1.77;;
57565;SDS011;63999;43.882;-0.310;2023-02-20T13:38:19;1.85;;;1.60;;
57565;SDS011;63999;43.882;-0.310;2023-02-20T13:45:47;1.90;;;1.40;;
57565;SDS011;63999;43.882;-0.310;2023-02-20T13:53:44;1.90;;;1.55;;
57565;SDS011;63999;43.882;-0.310;2023-02-20T13:58:47;4.97;;;1.80;;
57565;SDS011;63999;43.882;-0.310;2023-02-20T14:01:14;1.88;;;1.60;;
57565;SDS011;63999;43.882;-0.310;2023-02-20T14:03:40;1.60;;;1.33;;
57565;SDS011;63999;43.882;-0.310;2023-02-20T14:06:26;2.40;;;1.30;;
57565;SDS011;63999;43.882;-0.310;2023-02-20T14:09:05;2.67;;;2.30;;
57565;SDS011;63999;43.882;-0.310;2023-02-20T14:11:35;5.30;;;2.20;;
57565;SDS011;63999;43.882;-0.310;2023-02-20T14:14:06;2.95;;;2.10;;
57565;SDS011;63999;43.882;-0.310;2023-02-20T14:16:45;3.15;;;2.40;;
57565;SDS011;63999;43.882;-0.310;2023-02-20T14:21:49;3.53;;;3.03;;
57565;SDS011;63999;43.882;-0.310;2023-02-20T14:26:51;6.07;;;4.82;;
57565;SDS011;63999;43.882;-0.310;2023-02-20T14:29:38;6.75;;;5.07;;
57565;SDS011;63999;43.882;-0.310;2023-02-20T14:41:39;2.13;;;1.92;;
57565;SDS011;63999;43.882;-0.310;2023-02-20T14:44:22;4.15;;;2.97;;
57565;SDS011;63999;43.882;-0.310;2023-02-20T14:46:52;4.80;;;3.00;;
57565;SDS011;63999;43.882;-0.310;2023-02-20T14:49:24;2.13;;;1.88;;
57565;SDS011;63999;43.882;-0.310;2023-02-20T14:51:51;3.00;;;2.50;;
57565;SDS011;63999;43.882;-0.310;2023-02-20T14:54:28;2.42;;;1.70;;
57565;SDS011;63999;43.882;-0.310;2023-02-20T14:56:54;2.88;;;1.98;;
57565;SDS011;63999;43.882;-0.310;2023-02-20T14:59:23;2.85;;;2.00;;
57565;SDS011;63999;43.882;-0.310;2023-02-20T15:04:21;3.45;;;2.38;;
57565;SDS011;63999;43.882;-0.310;2023-02-20T15:06:48;3.22;;;2.25;;
57565;SDS011;63999;43.882;-0.310;2023-02-20T15:09:16;2.85;;;2.53;;
57565;SDS011;63999;43.882;-0.310;2023-02-20T15:11:52;3.53;;;2.70;;
57565;SDS011;63999;43.882;-0.310;2023-02-20T15:14:26;2.35;;;2.15;;
57565;SDS011;63999;43.882;-0.310;2023-02-20T15:17:41;2.97;;;2.60;;
57565;SDS011;63999;43.882;-0.310;2023-02-20T15:19:45;3.35;;;2.60;;
57565;SDS011;63999;43.882;-0.310;2023-02-20T15:22:20;3.28;;;2.70;;
57565;SDS011;63999;43.882;-0.310;2023-02-20T15:24:49;2.72;;;2.40;;
57565;SDS011;63999;43.882;-0.310;2023-02-20T15:27:16;3.85;;;2.53;;
57565;SDS011;63999;43.882;-0.310;2023-02-20T15:30:06;4.35;;;3.10;;
57565;SDS011;63999;43.882;-0.310;2023-02-20T15:32:32;6.38;;;3.25;;
57565;SDS011;63999;43.882;-0.310;2023-02-20T15:34:58;4.57;;;3.05;;
57565;SDS011;63999;43.882;-0.310;2023-02-20T15:39:52;3.88;;;2.47;;
57565;SDS011;63999;43.882;-0.310;2023-02-20T15:42:20;4.43;;;2.97;;
57565;SDS011;63999;43.882;-0.310;2023-02-20T15:44:48;3.17;;;2.30;;
57565;SDS011;63999;43.882;-0.310;2023-02-20T15:47:14;3.28;;;2.65;;
57565;SDS011;63999;43.882;-0.310;2023-02-20T15:49:40;3.10;;;2.20;;
57565;SDS011;63999;43.882;-0.310;2023-02-20T15:52:09;3.40;;;2.08;;
57565;SDS011;63999;43.882;-0.310;2023-02-20T15:54:44;3.78;;;2.00;;
57565;SDS011;63999;43.882;-0.310;2023-02-20T15:57:15;3.65;;;1.92;;
57565;SDS011;63999;43.882;-0.310;2023-02-20T15:59:42;2.60;;;2.03;;
57565;SDS011;63999;43.882;-0.310;2023-02-20T16:02:16;4.55;;;1.85;;
57565;SDS011;63999;43.882;-0.310;2023-02-20T16:04:49;2.00;;;1.67;;
57565;SDS011;63999;43.882;-0.310;2023-02-20T16:07:16;3.75;;;1.80;;
57565;SDS011;63999;43.882;-0.310;2023-02-20T16:09:43;2.50;;;1.80;;
57565;SDS011;63999;43.882;-0.310;2023-02-20T16:12:16;2.80;;;2.15;;
57565;SDS011;63999;43.882;-0.310;2023-02-20T16:14:46;2.55;;;1.80;;
57565;SDS011;63999;43.882;-0.310;2023-02-20T16:17:19;2.92;;;1.95;;
57565;SDS011;63999;43.882;-0.310;2023-02-20T16:19:53;2.38;;;1.70;;
57565;SDS011;63999;43.882;-0.310;2023-02-20T16:22:24;2.35;;;1.63;;
57565;SDS011;63999;43.882;-0.310;2023-02-20T16:24:52;3.42;;;1.77;;
57565;SDS011;63999;43.882;-0.310;2023-02-20T16:27:25;5.25;;;1.92;;
57565;SDS011;63999;43.882;-0.310;2023-02-20T16:29:54;2.90;;;2.20;;
57565;SDS011;63999;43.882;-0.310;2023-02-20T16:32:22;2.55;;;1.73;;
57565;SDS011;63999;43.882;-0.310;2023-02-20T16:34:50;2.70;;;1.92;;
57565;SDS011;63999;43.882;-0.310;2023-02-20T16:37:18;3.38;;;1.98;;
57565;SDS011;63999;43.882;-0.310;2023-02-20T16:39:44;4.15;;;2.10;;
57565;SDS011;63999;43.882;-0.310;2023-02-20T16:44:47;3.47;;;1.90;;
57565;SDS011;63999;43.882;-0.310;2023-02-20T16:47:15;3.60;;;1.90;;
57565;SDS011;63999;43.882;-0.310;2023-02-20T16:49:47;2.60;;;1.80;;
57565;SDS011;63999;43.882;-0.310;2023-02-20T16:52:14;2.92;;;1.65;;
57565;SDS011;63999;43.882;-0.310;2023-02-20T16:54:48;3.00;;;1.90;;
57565;SDS011;63999;43.882;-0.310;2023-02-20T16:57:15;2.83;;;1.95;;
57565;SDS011;63999;43.882;-0.310;2023-02-20T16:59:42;2.72;;;1.88;;
57565;SDS011;63999;43.882;-0.310;2023-02-20T17:02:16;2.72;;;2.00;;
57565;SDS011;63999;43.882;-0.310;2023-02-20T17:04:46;2.95;;;2.00;;
57565;SDS011;63999;43.882;-0.310;2023-02-20T17:07:15;2.33;;;1.65;;
57565;SDS011;63999;43.882;-0.310;2023-02-20T17:09:44;6.95;;;3.08;;
57565;SDS011;63999;43.882;-0.310;2023-02-20T17:12:12;2.53;;;1.98;;
57565;SDS011;63999;43.882;-0.310;2023-02-20T17:14:43;3.53;;;1.80;;
57565;SDS011;63999;43.882;-0.310;2023-02-20T17:17:12;2.60;;;1.70;;
57565;SDS011;63999;43.882;-0.310;2023-02-20T17:19:40;4.45;;;2.33;;
57565;SDS011;63999;43.882;-0.310;2023-02-20T17:22:08;4.35;;;2.05;;